Time;durP1;ratioP1;P1;durP2;ratioP2;P2;SDS_P1;SDS_P2;PMS_P1;PMS_P2;Temp;Humidity;BMP_temperature;BMP_pressure;BME280_temperature;BME280_humidity;BME280_pressure;Samples;Min_cycle;Max_cycle;Signal;HPM_P1;HPM_P2
2022/07/13 00:00:45;;;;;;;2.25;1.50;;;13.00;99.90;;;12.60;100.00;97597.16;5001793;28;119509;-77
2022/07/13 00:03:16;;;;;;;2.33;1.50;;;12.90;99.90;;;12.65;100.00;97587.88;4985300;28;129399;-76
2022/07/13 00:05:44;;;;;;;3.38;2.00;;;12.90;99.90;;;12.67;100.00;97591.81;5000885;28;129932;-75
2022/07/13 00:08:12;;;;;;;2.33;1.70;;;12.90;99.90;;;12.61;100.00;97603.41;4981883;28;121857;-76
2022/07/13 00:10:41;;;;;;;2.50;1.95;;;12.90;99.90;;;12.59;100.00;97601.81;4985473;28;121601;-73
2022/07/13 00:13:09;;;;;;;4.18;1.83;;;12.90;99.90;;;12.54;100.00;97598.63;5000725;28;130004;-77
2022/07/13 00:15:38;;;;;;;3.55;1.83;;;12.90;99.90;;;12.61;100.00;97597.97;4985729;28;129100;-74
2022/07/13 00:18:07;;;;;;;3.40;1.75;;;12.90;99.90;;;12.55;100.00;97594.78;5000829;28;120147;-74
2022/07/13 00:20:37;;;;;;;2.70;1.77;;;12.80;99.90;;;12.50;100.00;97593.16;5000879;28;120910;-76
2022/07/13 00:23:06;;;;;;;2.42;1.80;;;12.80;99.90;;;12.46;100.00;97595.06;4999288;28;130304;-77
2022/07/13 00:25:34;;;;;;;4.72;2.03;;;12.80;99.90;;;12.49;100.00;97590.81;4985486;28;128587;-79
2022/07/13 00:28:03;;;;;;;2.83;1.80;;;12.80;99.90;;;12.48;100.00;97590.03;5000843;28;120556;-74
2022/07/13 00:30:32;;;;;;;2.28;1.48;;;12.80;99.90;;;12.52;100.00;97590.84;4983174;28;120887;-74
2022/07/13 00:33:00;;;;;;;3.63;1.75;;;12.80;99.90;;;12.46;100.00;97597.78;4968149;28;129045;-79
2022/07/13 00:35:29;;;;;;;4.40;1.95;;;12.70;99.90;;;12.49;100.00;97594.31;5000727;28;129523;-75
2022/07/13 00:37:59;;;;;;;4.28;1.80;;;12.70;99.90;;;12.40;100.00;97588.38;4982966;28;120542;-73
2022/07/13 00:40:28;;;;;;;3.17;1.77;;;12.70;99.90;;;12.39;100.00;97586.81;4969206;28;118888;-76
2022/07/13 00:42:57;;;;;;;3.13;1.65;;;12.70;99.90;;;12.38;100.00;97587.97;5000549;28;129818;-77
2022/07/13 00:45:25;;;;;;;2.17;1.48;;;12.70;99.90;;;12.34;100.00;97589.84;4985539;28;129861;-76
2022/07/13 00:47:55;;;;;;;3.03;1.67;;;12.60;99.90;;;12.38;100.00;97590.69;4998850;28;119513;-75
2022/07/13 00:50:25;;;;;;;2.60;1.70;;;12.70;99.90;;;12.36;100.00;97593.00;4986240;28;119283;-77
2022/07/13 00:52:54;;;;;;;4.03;1.83;;;12.60;99.90;;;12.35;100.00;97592.19;4969295;28;128886;-76
2022/07/13 00:55:25;;;;;;;3.03;1.35;;;12.60;99.90;;;12.38;100.00;97585.25;5003056;28;129416;-76
2022/07/13 00:57:55;;;;;;;3.35;1.80;;;12.60;99.90;;;12.38;100.00;97590.69;4997676;28;122388;-76
2022/07/13 01:00:23;;;;;;;3.67;1.77;;;12.60;99.90;;;12.41;100.00;97590.72;4969407;28;120831;-75
2022/07/13 01:02:52;;;;;;;2.90;1.23;;;12.70;99.90;;;12.35;100.00;97581.31;4982153;28;130085;-77
2022/07/13 01:05:21;;;;;;;2.33;1.40;;;12.60;99.90;;;12.43;100.00;97584.91;5000184;28;129963;-76
2022/07/13 01:07:50;;;;;;;4.13;1.80;;;12.60;99.90;;;12.39;100.00;97576.72;4969388;28;119686;-76
2022/07/13 01:10:18;;;;;;;3.33;1.30;;;12.60;99.90;;;12.44;100.00;97578.31;4985754;28;119627;-75
2022/07/13 01:12:49;;;;;;;1.67;1.20;;;12.60;99.90;;;12.37;100.00;97578.22;4968531;28;129062;-77
2022/07/13 01:15:18;;;;;;;2.45;1.50;;;12.60;99.90;;;12.35;100.00;97580.53;4985685;28;129068;-77
2022/07/13 01:17:47;;;;;;;2.33;1.48;;;12.60;99.90;;;12.35;100.00;97577.81;4982158;28;119907;-79
2022/07/13 01:20:17;;;;;;;4.43;1.55;;;12.60;99.90;;;12.39;100.00;97578.66;5000792;28;119457;-76
2022/07/13 01:22:46;;;;;;;2.28;1.27;;;12.60;99.90;;;12.38;100.00;97579.81;4967889;28;129721;-78
2022/07/13 01:25:18;;;;;;;2.53;1.65;;;12.60;99.90;;;12.37;100.00;97573.59;4999865;28;130059;-75
2022/07/13 01:27:49;;;;;;;1.48;1.15;;;12.60;99.90;;;12.32;100.00;97576.63;4998205;28;120312;-74
2022/07/13 01:30:18;;;;;;;2.17;1.35;;;12.60;99.90;;;12.35;100.00;97577.81;5000722;28;119607;-76
2022/07/13 01:32:50;;;;;;;1.55;1.05;;;12.60;99.90;;;12.39;100.00;97575.94;4985501;28;129629;-75
2022/07/13 01:35:21;;;;;;;2.28;1.13;;;12.60;99.90;;;12.35;100.00;97585.97;5002241;28;129385;-78
2022/07/13 01:37:51;;;;;;;1.15;1.00;;;12.60;99.90;;;12.31;100.00;97585.16;4990765;28;118679;-75
2022/07/13 01:40:22;;;;;;;2.95;1.00;;;12.60;99.90;;;12.29;100.00;97577.34;4974138;28;118532;-75
2022/07/13 01:42:53;;;;;;;2.72;1.20;;;12.60;99.90;;;12.30;100.00;97581.66;4985372;28;128677;-78
2022/07/13 01:45:24;;;;;;;2.63;1.15;;;12.60;99.90;;;12.35;100.00;97577.81;4981630;28;129957;-75
2022/07/13 01:47:55;;;;;;;2.00;1.33;;;12.60;99.90;;;12.35;100.00;97575.09;4980569;28;122391;-77
2022/07/13 01:50:27;;;;;;;1.48;1.02;;;12.60;99.90;;;12.38;100.00;97579.81;4988550;28;121868;-78
2022/07/13 01:52:57;;;;;;;2.80;1.10;;;12.60;99.90;;;12.36;100.00;97582.13;4971577;28;129831;-78
2022/07/13 01:55:27;;;;;;;1.52;1.10;;;12.60;99.90;;;12.37;100.00;97584.47;5001395;28;130282;-76
2022/07/13 01:57:59;;;;;;;1.92;1.10;;;12.60;99.90;;;12.31;100.00;97583.22;5004898;28;119714;-78
2022/07/13 02:00:29;;;;;;;1.88;1.02;;;12.60;99.90;;;12.32;100.00;97584.00;5001234;28;118585;-80
2022/07/13 02:02:57;;;;;;;2.75;0.90;;;12.60;99.90;;;12.32;100.00;97587.50;5022682;28;129774;-75
2022/07/13 02:05:28;;;;;;;1.15;0.93;;;12.60;99.90;;;12.33;100.00;97585.56;5024967;28;129147;-76
2022/07/13 02:07:57;;;;;;;1.20;1.10;;;12.60;99.90;;;12.31;100.00;97587.88;5004886;28;119430;-76
2022/07/13 02:10:35;;;;;;;1.50;1.10;;;12.50;99.90;;;12.25;100.00;97581.97;5001643;28;119818;-77
2022/07/13 02:13:04;;;;;;;1.48;0.88;;;12.50;99.90;;;12.27;100.00;97581.63;5003253;28;129919;-77
2022/07/13 02:15:33;;;;;;;2.75;1.15;;;12.50;99.90;;;12.32;100.00;97584.00;5004369;28;129421;-76
2022/07/13 02:18:02;;;;;;;3.17;1.20;;;12.60;99.90;;;12.25;100.00;97581.19;5025347;28;119196;-76
2022/07/13 02:20:31;;;;;;;1.10;1.00;;;12.50;99.90;;;12.26;100.00;97582.75;5015207;28;119970;-78
2022/07/13 02:23:00;;;;;;;1.60;1.15;;;12.50;99.90;;;12.23;100.00;97587.00;5007861;28;130214;-78
2022/07/13 02:25:31;;;;;;;1.33;1.20;;;12.50;99.90;;;12.21;100.00;97586.59;5008131;28;128697;-76
2022/07/13 02:27:59;;;;;;;1.80;1.25;;;12.50;99.90;;;12.26;100.00;97588.97;5008153;28;119389;-77
2022/07/13 02:30:28;;;;;;;1.58;1.10;;;12.50;99.90;;;12.28;100.00;97585.88;5023253;28;119373;-77
2022/07/13 02:32:57;;;;;;;3.13;1.30;;;12.60;99.90;;;12.27;100.00;97584.34;5004250;28;130064;-78
2022/07/13 02:35:26;;;;;;;3.70;1.20;;;12.60;99.90;;;12.27;100.00;97590.53;5024546;28;129383;-77
2022/07/13 02:37:55;;;;;;;1.83;1.20;;;12.50;99.90;;;12.31;100.00;97590.59;4989935;28;121770;-77
2022/07/13 02:40:24;;;;;;;2.13;1.20;;;12.50;99.90;;;12.30;100.00;97591.75;4990998;28;120744;-76
2022/07/13 02:42:53;;;;;;;1.00;0.90;;;12.50;99.90;;;12.26;100.00;97588.19;5004119;28;130359;-75
2022/07/13 02:45:22;;;;;;;1.83;1.13;;;12.50;99.90;;;12.22;100.00;97591.66;4995940;28;128892;-78
2022/07/13 02:47:51;;;;;;;2.22;1.30;;;12.50;99.90;;;12.24;100.00;97591.28;5016519;28;119635;-76
2022/07/13 02:50:19;;;;;;;1.40;1.15;;;12.50;99.90;;;12.17;100.00;97591.97;5024379;28;119092;-78
2022/07/13 02:52:49;;;;;;;2.00;1.10;;;12.50;99.90;;;12.29;100.00;97595.63;5021599;28;129711;-78
2022/07/13 02:55:18;;;;;;;1.85;1.27;;;12.50;99.90;;;12.27;100.00;97600.66;5022515;28;130001;-78
2022/07/13 02:57:47;;;;;;;1.60;1.20;;;12.50;99.90;;;12.38;100.00;97607.00;5021044;28;119860;-77
2022/07/13 03:00:18;;;;;;;1.77;1.25;;;12.60;99.90;;;12.32;100.00;97608.47;5004512;28;119572;-74
2022/07/13 03:02:46;;;;;;;3.42;1.38;;;12.50;99.90;;;12.35;100.00;97603.06;5003462;28;129809;-76
2022/07/13 03:05:17;;;;;;;1.90;1.30;;;12.50;99.90;;;12.29;100.00;97609.22;5023848;28;129241;-76
2022/07/13 03:07:46;;;;;;;2.63;1.20;;;12.50;99.90;;;12.28;100.00;97603.00;5004136;28;119799;-76
2022/07/13 03:10:14;;;;;;;2.10;1.27;;;12.50;99.90;;;12.37;100.00;97608.16;5024775;28;119491;-76
2022/07/13 03:12:44;;;;;;;1.23;1.00;;;12.50;99.90;;;12.38;100.00;97602.34;5020720;28;130750;-77
2022/07/13 03:15:13;;;;;;;1.23;1.00;;;12.50;99.90;;;12.40;100.00;97599.25;5007135;28;129186;-75
2022/07/13 03:17:43;;;;;;;2.05;1.00;;;12.50;99.90;;;12.39;100.00;97603.91;5004334;28;121164;-76
2022/07/13 03:20:15;;;;;;;1.27;1.05;;;12.50;99.90;;;12.48;100.00;97598.19;5007634;28;119051;-76
2022/07/13 03:22:45;;;;;;;2.38;1.00;;;12.60;99.90;;;12.43;100.00;97603.94;5003536;28;130948;-76
2022/07/13 03:25:14;;;;;;;1.38;1.13;;;12.50;99.90;;;12.46;100.00;97600.50;5022910;28;129187;-77
2022/07/13 03:27:44;;;;;;;2.67;1.08;;;12.60;99.90;;;12.56;100.00;97599.84;5006292;28;121082;-75
2022/07/13 03:30:13;;;;;;;1.30;1.05;;;12.60;99.90;;;12.48;100.00;97606.38;5004115;28;121712;-77
2022/07/13 03:32:43;;;;;;;2.08;1.10;;;12.60;99.90;;;12.49;100.00;97602.47;5006718;28;128744;-74
2022/07/13 03:35:14;;;;;;;1.30;1.10;;;12.60;99.90;;;12.44;100.00;97600.09;5003745;28;129886;-78
2022/07/13 03:37:43;;;;;;;2.42;1.05;;;12.60;99.90;;;12.45;100.00;97607.09;5003737;28;120058;-76
2022/07/13 03:40:14;;;;;;;2.25;1.10;;;12.60;99.90;;;12.47;100.00;97599.34;5004169;28;119419;-76
2022/07/13 03:42:43;;;;;;;1.63;1.33;;;12.60;99.90;;;12.39;100.00;97608.59;5002575;28;130021;-75
2022/07/13 03:45:12;;;;;;;2.00;1.20;;;12.50;99.90;;;12.36;100.00;97614.75;5003694;28;129471;-74
2022/07/13 03:47:42;;;;;;;3.10;1.30;;;12.60;99.90;;;12.46;100.00;97619.53;5003807;28;119464;-74
2022/07/13 03:50:11;;;;;;;2.22;1.33;;;12.60;99.90;;;12.36;100.00;97614.75;5005563;28;118992;-77
2022/07/13 03:52:40;;;;;;;2.28;1.42;;;12.60;99.90;;;12.42;100.00;97624.16;5018723;28;130483;-74
2022/07/13 03:55:09;;;;;;;2.17;1.35;;;12.60;99.90;;;12.33;100.00;97620.94;5006180;28;130477;-75
2022/07/13 03:57:38;;;;;;;2.92;1.50;;;12.50;99.90;;;12.44;100.00;97627.28;5019520;27;120057;-75
2022/07/13 04:00:08;;;;;;;1.70;1.20;;;12.60;99.90;;;12.44;100.00;97635.44;5022982;28;119016;-75
2022/07/13 04:02:45;;;;;;;2.13;1.33;;;12.60;99.90;;;12.51;100.00;97637.47;5020664;28;131543;-77
2022/07/13 04:05:17;;;;;;;1.98;1.20;;;12.60;99.90;;;12.53;100.00;97635.97;5007014;28;102663;-72
2022/07/13 04:07:47;;;;;;;2.65;1.40;;;12.60;99.90;;;12.69;100.00;97633.03;4986271;28;119201;-76
2022/07/13 04:10:18;;;;;;;1.25;1.00;;;12.70;99.90;;;12.79;100.00;97639.75;5019544;28;119439;-72
2022/07/13 04:12:47;;;;;;;1.30;0.90;;;12.70;99.90;;;12.83;100.00;97637.88;5002601;28;129764;-74
2022/07/13 04:15:16;;;;;;;1.88;1.13;;;12.70;99.90;;;12.88;100.00;97640.25;5002851;28;129514;-71
2022/07/13 04:17:47;;;;;;;1.45;1.05;;;12.80;99.90;;;12.90;100.00;97637.94;5001540;28;121302;-72
2022/07/13 04:20:17;;;;;;;1.90;1.00;;;12.80;99.90;;;12.98;100.00;97643.47;5019077;28;121808;-77
2022/07/13 04:22:48;;;;;;;2.03;1.08;;;12.80;99.90;;;12.93;100.00;97637.22;5005935;28;130663;-76
2022/07/13 04:25:18;;;;;;;2.20;1.15;;;12.80;99.90;;;12.85;100.00;97642.94;5019389;28;129410;-74
2022/07/13 04:27:47;;;;;;;1.30;1.10;;;12.90;99.90;;;12.83;100.00;97647.97;5005804;28;119082;-73
2022/07/13 04:30:16;;;;;;;1.92;1.17;;;12.80;99.90;;;12.85;100.00;97654.59;5019530;28;120016;-75
2022/07/13 04:32:45;;;;;;;4.63;1.45;;;12.80;99.90;;;12.86;100.00;97647.22;5022310;28;129913;-74
2022/07/13 04:35:15;;;;;;;2.72;1.35;;;12.80;99.90;;;12.86;100.00;97658.91;5005069;28;129341;-73
2022/07/13 04:37:47;;;;;;;1.33;1.10;;;12.70;99.90;;;12.85;100.00;97656.53;5022512;28;119373;-76
2022/07/13 04:40:16;;;;;;;1.90;1.20;;;12.80;99.90;;;13.03;100.00;97662.22;5019528;28;119092;-75
2022/07/13 04:42:45;;;;;;;2.22;1.38;;;12.90;99.90;;;13.09;100.00;97666.16;5021106;28;130205;-77
2022/07/13 04:45:18;;;;;;;2.38;1.20;;;12.90;99.90;;;13.15;100.00;97669.31;5004305;28;130015;-71
2022/07/13 04:47:50;;;;;;;1.70;1.10;;;12.90;99.90;;;13.11;100.00;97664.63;5005330;28;119801;-70
2022/07/13 04:50:19;;;;;;;1.45;1.10;;;13.00;99.90;;;13.17;100.00;97667.78;5002316;28;119603;-73
2022/07/13 04:52:48;;;;;;;1.58;1.27;;;13.00;99.90;;;13.05;100.00;97666.09;5005153;28;129616;-74
2022/07/13 04:55:17;;;;;;;1.02;0.95;;;12.90;99.90;;;13.04;100.00;97661.03;5005016;28;129097;-72
2022/07/13 04:57:45;;;;;;;1.33;1.02;;;12.90;99.90;;;13.04;100.00;97674.66;5003758;28;119935;-73
2022/07/13 05:00:17;;;;;;;2.75;1.23;;;12.90;99.90;;;12.98;100.00;97676.13;5001807;28;120096;-73
2022/07/13 05:02:46;;;;;;;1.05;0.90;;;12.80;99.90;;;12.80;100.00;97681.38;5018616;28;131028;-71
2022/07/13 05:05:16;;;;;;;1.70;1.17;;;12.80;99.90;;;12.78;100.00;97684.47;5018392;28;130209;-70
2022/07/13 05:07:46;;;;;;;2.22;1.20;;;12.80;99.90;;;12.79;100.00;97677.84;4987336;28;121271;-71
2022/07/13 05:10:17;;;;;;;1.20;1.08;;;12.80;99.90;;;12.83;100.00;97681.41;5017892;28;122322;-69
2022/07/13 05:12:50;;;;;;;1.98;1.23;;;12.80;99.90;;;12.88;100.00;97683.81;5004506;28;129780;-74
2022/07/13 05:15:19;;;;;;;1.80;1.15;;;12.80;99.90;;;13.02;100.00;97683.19;5018517;28;129858;-75
2022/07/13 05:17:50;;;;;;;2.65;1.30;;;12.90;99.90;;;13.18;100.00;97682.97;5005019;28;118405;-75
2022/07/13 05:20:21;;;;;;;1.65;1.08;;;13.00;99.90;;;13.05;100.00;97692.56;5001855;28;119514;-79
2022/07/13 05:22:55;;;;;;;1.27;1.08;;;12.90;99.90;;;13.17;100.00;97683.38;4998106;28;129789;-73
2022/07/13 05:25:27;;;;;;;1.60;1.15;;;13.00;99.90;;;13.27;100.00;97683.44;4994002;28;129148;-74
2022/07/13 05:27:56;;;;;;;2.97;1.20;;;13.00;99.90;;;13.25;100.00;97691.22;4998304;28;119973;-71
2022/07/13 05:30:24;;;;;;;1.58;1.10;;;12.90;99.90;;;13.07;100.00;97696.50;5001455;28;119554;-76
2022/07/13 05:32:53;;;;;;;2.05;1.00;;;12.90;99.90;;;12.94;100.00;97693.22;4984570;28;129826;-72
2022/07/13 05:35:24;;;;;;;2.28;1.08;;;12.80;99.90;;;12.91;100.00;97698.63;4996219;28;128786;-75
2022/07/13 05:37:53;;;;;;;1.55;1.00;;;12.90;99.90;;;12.84;100.00;97704.78;4985245;28;119115;-75
2022/07/13 05:40:22;;;;;;;0.80;0.80;;;12.80;99.90;;;13.05;100.00;97709.66;5005161;28;118975;-74
2022/07/13 05:42:52;;;;;;;1.77;1.02;;;13.00;99.90;;;13.36;100.00;97706.94;5001498;28;130426;-74
2022/07/13 05:45:21;;;;;;;1.92;0.80;;;13.10;99.90;;;13.47;100.00;97696.91;4987809;28;128254;-76
2022/07/13 05:47:51;;;;;;;2.08;1.00;;;13.10;99.90;;;13.59;100.00;97710.28;5021782;28;119826;-78
2022/07/13 05:50:23;;;;;;;1.77;1.00;;;13.20;99.90;;;13.61;100.00;97710.69;5002096;28;119373;-76
2022/07/13 05:52:52;;;;;;;1.08;0.98;;;13.20;99.90;;;13.41;100.00;97714.75;5003591;28;129152;-75
2022/07/13 05:55:24;;;;;;;1.30;1.20;;;13.10;99.90;;;13.20;100.00;97718.81;5000441;28;128739;-74
2022/07/13 05:57:53;;;;;;;2.05;1.10;;;13.00;99.90;;;13.40;100.00;97719.44;4997875;28;122627;-74
2022/07/13 06:00:22;;;;;;;1.50;0.95;;;13.20;99.90;;;13.38;100.00;97723.69;4999646;28;122098;-76
2022/07/13 06:02:50;;;;;;;1.83;1.00;;;13.00;99.90;;;13.37;100.00;97719.38;4999155;28;130073;-76
2022/07/13 06:05:19;;;;;;;1.30;1.10;;;13.10;99.90;;;13.28;100.00;97723.16;4999073;28;130296;-75
2022/07/13 06:07:50;;;;;;;1.70;1.30;;;13.00;99.90;;;13.41;100.00;97731.13;4984570;28;118771;-73
2022/07/13 06:10:18;;;;;;;2.42;1.35;;;13.10;99.90;;;13.57;100.00;97731.69;4999294;28;119716;-77
2022/07/13 06:12:47;;;;;;;1.20;1.05;;;13.30;99.90;;;13.49;100.00;97735.47;4980834;28;130113;-74
2022/07/13 06:15:16;;;;;;;1.08;0.90;;;13.20;99.90;;;13.42;100.00;97738.13;4999312;28;130220;-74
2022/07/13 06:17:44;;;;;;;1.48;1.02;;;13.00;99.90;;;13.41;100.00;97736.56;4984854;28;119196;-72
2022/07/13 06:20:13;;;;;;;2.00;1.00;;;13.10;99.90;;;13.33;100.00;97745.78;4999366;28;119641;-75
2022/07/13 06:22:42;;;;;;;2.13;1.10;;;13.10;99.90;;;13.30;100.00;97747.31;5000951;28;129832;-75
2022/07/13 06:25:13;;;;;;;1.65;1.00;;;13.00;99.90;;;13.50;100.00;97750.66;4987142;28;128607;-76
2022/07/13 06:27:42;;;;;;;1.88;1.10;;;13.20;99.90;;;13.38;100.00;97753.66;4987478;28;118782;-76
2022/07/13 06:30:11;;;;;;;1.77;1.00;;;13.10;99.90;;;13.38;100.00;97738.09;5002137;28;119520;-77
2022/07/13 06:32:40;;;;;;;1.88;1.20;;;13.10;99.90;;;13.40;100.00;97756.78;4987265;28;129732;-75
2022/07/13 06:35:09;;;;;;;4.47;1.08;;;13.10;99.90;;;13.44;100.00;97758.38;5001965;28;129716;-71
2022/07/13 06:37:38;;;;;;;1.10;1.00;;;13.10;99.90;;;13.52;100.00;97756.53;5002380;28;119245;-71
2022/07/13 06:40:08;;;;;;;1.50;1.08;;;13.10;99.90;;;13.66;100.00;97764.88;4984734;28;119806;-74
2022/07/13 06:42:39;;;;;;;1.15;0.90;;;13.30;99.90;;;13.68;100.00;97774.59;5001154;28;130269;-77
2022/07/13 06:45:11;;;;;;;2.40;1.58;;;13.20;99.90;;;13.83;100.00;97759.94;5002045;28;130632;-71
2022/07/13 06:47:40;;;;;;;1.10;1.00;;;13.40;99.90;;;13.91;100.00;97767.03;5000884;28;122506;-70
2022/07/13 06:50:10;;;;;;;1.38;1.00;;;13.50;99.90;;;14.18;100.00;97773.13;5002051;28;121733;-73
2022/07/13 06:52:40;;;;;;;1.55;1.02;;;13.60;99.90;;;14.13;100.00;97776.19;4987076;28;129604;-71
2022/07/13 06:55:10;;;;;;;1.10;0.98;;;13.50;99.90;;;14.05;100.00;97773.78;5015320;28;129525;-73
2022/07/13 06:57:40;;;;;;;3.75;1.65;;;13.50;99.90;;;13.93;100.00;97778.38;5022462;28;119695;-73
2022/07/13 07:00:12;;;;;;;1.45;1.00;;;13.40;99.90;;;14.01;100.00;97779.97;4988948;28;118338;-73
2022/07/13 07:02:41;;;;;;;1.60;1.05;;;13.40;99.90;;;14.01;100.00;97779.97;4987014;28;128670;-71
2022/07/13 07:05:10;;;;;;;1.15;1.00;;;13.50;99.90;;;13.78;100.00;97787.56;5020905;28;129651;-71
2022/07/13 07:07:40;;;;;;;2.35;1.05;;;13.30;99.90;;;13.78;100.00;97787.56;5020492;27;118517;-72
2022/07/13 07:10:11;;;;;;;1.50;1.10;;;13.30;99.90;;;13.83;100.00;97809.03;5042162;27;120190;-71
2022/07/13 07:12:42;;;;;;;1.38;1.10;;;13.20;99.90;;;13.98;100.00;97809.97;5010802;27;130375;-71
2022/07/13 07:15:11;;;;;;;1.35;1.10;;;13.40;99.90;;;13.74;100.00;97803.09;5013744;28;129609;-70
2022/07/13 07:17:47;;;;;;;1.73;1.30;;;13.30;99.90;;;13.78;100.00;97810.16;4995586;28;118452;-72
2022/07/13 07:20:16;;;;;;;2.28;1.08;;;13.40;99.90;;;13.91;100.00;97816.09;5002454;28;119665;-71
2022/07/13 07:22:46;;;;;;;1.45;1.05;;;13.60;99.90;;;14.02;100.00;97814.28;4982955;28;129977;-71
2022/07/13 07:25:15;;;;;;;2.92;1.20;;;13.50;92.20;;;13.98;100.00;97823.59;5000411;28;129450;-70
2022/07/13 07:27:46;;;;;;;1.98;1.20;;;13.50;23.30;;;14.00;100.00;97827.50;4983244;28;119430;-71
2022/07/13 07:30:15;;;;;;;1.15;1.00;;;13.40;1.00;;;14.28;100.00;97831.66;5020555;28;120477;-71
2022/07/13 07:32:43;;;;;;;1.83;1.10;;;13.70;1.00;;;14.32;100.00;97826.22;5002117;28;129915;-71
2022/07/13 07:35:12;;;;;;;1.25;1.10;;;13.70;1.00;;;14.18;100.00;97835.88;5020910;28;129970;-75
2022/07/13 07:37:40;;;;;;;1.58;1.10;;;13.60;1.00;;;14.17;100.00;97842.47;5021711;28;122660;-73
2022/07/13 07:40:11;;;;;;;1.40;1.20;;;13.70;1.00;;;14.06;100.00;97840.81;5019814;28;121933;-70
2022/07/13 07:42:40;;;;;;;2.92;1.77;;;13.50;1.00;;;14.37;100.00;97840.31;5020833;28;129936;-70
2022/07/13 07:45:11;;;;;;;1.63;1.20;;;13.70;1.00;;;14.23;100.00;97851.09;5024315;28;129017;-72
2022/07/13 07:47:40;;;;;;;2.03;1.38;;;13.60;1.00;;;14.26;100.00;97850.34;5021353;28;119920;-72
2022/07/13 07:50:09;;;;;;;1.52;1.20;;;13.70;1.00;;;14.02;100.00;97852.47;5021313;28;119518;-72
2022/07/13 07:52:39;;;;;;;2.45;1.60;;;13.70;1.00;;;14.36;100.00;97860.56;4989446;28;129488;-69
2022/07/13 07:55:08;;;;;;;5.53;3.75;;;13.90;1.00;;;14.28;100.00;97869.84;5022946;28;129611;-70
2022/07/13 07:57:46;;;;;;;4.82;3.42;;;13.80;1.00;;;14.27;100.00;97868.28;5010777;28;120079;-73
2022/07/13 08:00:17;;;;;;;1.85;1.60;;;13.90;1.00;;;14.22;100.00;97876.03;5001708;28;119447;-69
2022/07/13 08:02:47;;;;;;;1.80;1.50;;;13.70;1.00;;;14.15;100.00;97887.66;5001126;28;129683;-71
2022/07/13 08:05:16;;;;;;;2.45;1.58;;;13.80;1.00;;;14.21;100.00;97891.63;5022595;28;129147;-71
2022/07/13 08:07:46;;;;;;;2.35;1.45;;;13.70;1.00;;;14.22;100.00;97887.72;5020883;28;119560;-71
2022/07/13 08:10:16;;;;;;;2.03;1.30;;;13.80;1.00;;;14.35;100.00;97897.22;5020676;28;119718;-71
2022/07/13 08:12:45;;;;;;;1.98;1.30;;;13.90;1.00;;;14.23;100.00;97894.75;5020827;28;130489;-72
2022/07/13 08:15:13;;;;;;;3.25;1.50;;;13.80;1.00;;;14.43;100.00;97900.00;5022368;28;129441;-71
2022/07/13 08:17:43;;;;;;;1.92;1.23;;;13.90;1.00;;;14.39;100.00;97905.44;5020638;28;119670;-74
2022/07/13 08:20:13;;;;;;;1.90;1.42;;;13.90;1.00;;;14.46;100.00;97910.16;5020889;28;119298;-70
2022/07/13 08:22:41;;;;;;;2.08;1.60;;;14.00;1.00;;;14.29;100.00;97909.63;5020349;28;129904;-74
2022/07/13 08:25:10;;;;;;;1.95;1.33;;;13.90;1.00;;;14.14;100.00;97913.38;5005113;28;129813;-69
2022/07/13 08:27:38;;;;;;;2.28;1.50;;;13.90;1.00;;;14.19;100.00;97927.47;5019135;28;122216;-74
2022/07/13 08:30:10;;;;;;;3.60;1.50;;;14.00;1.00;;;14.26;100.00;97925.94;5004534;28;120860;-73
2022/07/13 08:32:38;;;;;;;3.50;1.50;;;14.00;1.00;;;14.38;100.00;97929.22;5020406;28;129987;-71
2022/07/13 08:40:42;;;;;;;3.20;1.47;;;13.90;1.00;;;14.10;100.00;97937.09;5020136;28;119411;-70
2022/07/13 08:43:11;;;;;;;6.15;1.30;;;14.00;99.90;;;14.09;100.00;97936.31;5002160;27;130148;-72
2022/07/13 08:45:41;;;;;;;1.75;1.30;;;14.00;99.90;;;13.98;100.00;97944.38;5019599;28;129764;-72
2022/07/13 08:48:17;;;;;;;2.10;1.50;;;14.00;99.90;;;13.97;100.00;97950.97;5019642;28;119830;-73
2022/07/13 08:50:47;;;;;;;2.17;1.40;;;14.00;99.90;;;13.81;100.00;97955.84;5019253;28;119867;-70
2022/07/13 08:53:16;;;;;;;1.48;1.30;;;13.90;99.90;;;13.99;100.00;97954.13;5018557;28;129779;-69
2022/07/13 08:55:45;;;;;;;1.92;1.30;;;14.00;99.90;;;13.87;100.00;97964.47;5022194;28;129421;-74
2022/07/13 08:58:16;;;;;;;2.75;1.40;;;13.90;99.90;;;13.95;100.00;97971.59;5002182;28;119592;-70
2022/07/13 09:00:45;;;;;;;3.38;1.52;;;14.00;99.90;;;13.89;100.00;97962.97;5020525;28;119322;-74
2022/07/13 09:03:13;;;;;;;4.15;1.50;;;13.90;99.90;;;13.88;100.00;97966.84;5019752;28;130539;-73
2022/07/13 09:05:43;;;;;;;2.63;1.52;;;13.90;99.90;;;13.83;100.00;97976.13;5019481;28;130129;-72
2022/07/13 09:08:14;;;;;;;1.92;1.30;;;13.90;99.90;;;13.86;100.00;97973.81;5019789;28;120325;-70
2022/07/13 09:11:02;;;;;;;3.00;1.63;;;13.90;99.90;;;13.87;100.00;97976.19;5020431;28;119515;-69
2022/07/13 09:13:39;;;;;;;1.80;1.42;;;14.00;99.90;;;13.91;100.00;97976.22;5019620;28;129895;-75
2022/07/13 09:16:19;;;;;;;3.47;1.40;;;14.00;99.90;;;14.10;100.00;97975.28;5019332;28;129792;-72
2022/07/13 09:18:51;;;;;;;1.95;1.58;;;14.10;99.90;;;14.10;100.00;97980.72;5018954;28;121900;-71
2022/07/13 09:21:20;;;;;;;3.22;1.58;;;14.10;99.90;;;14.11;100.00;97993.22;5019357;28;121943;-72
2022/07/13 09:23:55;;;;;;;1.88;1.42;;;14.00;99.90;;;13.91;100.00;97987.91;5019477;28;130377;-70
2022/07/13 09:26:23;;;;;;;2.40;1.60;;;13.90;99.90;;;13.98;100.00;97998.13;5019691;28;130413;-73
2022/07/13 09:28:53;;;;;;;3.53;1.80;;;13.90;99.90;;;13.96;100.00;98001.25;5019491;28;119676;-70
2022/07/13 09:31:23;;;;;;;2.67;1.75;;;13.90;99.90;;;13.98;100.00;98009.81;5021989;28;119102;-72
2022/07/13 09:33:56;;;;;;;3.25;1.48;;;13.90;99.90;;;13.87;100.00;98014.38;5019070;28;129897;-72
2022/07/13 09:36:25;;;;;;;3.10;1.70;;;13.80;99.90;;;13.91;100.00;98015.19;5019333;28;129305;-72
2022/07/13 09:38:55;;;;;;;2.30;1.60;;;13.90;99.90;;;13.88;100.00;98017.88;5019842;28;119767;-69
2022/07/13 09:41:25;;;;;;;4.53;1.80;;;13.90;99.90;;;14.05;100.00;98024.72;5019532;28;120143;-72
2022/07/13 09:46:54;;;;;;;2.80;1.63;;;14.00;99.90;;;14.00;100.00;98034.00;5020718;28;128977;-72
2022/07/13 09:49:41;;;;;;;2.78;1.58;;;13.80;1.00;;;13.99;100.00;98044.13;5019873;28;119922;-72
2022/07/13 09:52:11;;;;;;;3.58;1.85;;;13.80;1.00;;;13.93;100.00;98045.59;5022366;28;119634;-70
2022/07/13 09:54:43;;;;;;;2.38;1.67;;;13.90;1.00;;;13.97;100.00;98054.59;5018726;28;129838;-70
2022/07/13 09:57:16;;;;;;;2.50;1.45;;;13.90;1.00;;;13.98;100.00;98048.00;5007963;28;129034;-74
2022/07/13 09:59:45;;;;;;;3.17;1.75;;;14.00;99.90;;;14.06;100.00;98061.75;5022868;28;119566;-73
2022/07/13 10:02:17;;;;;;;2.60;1.73;;;14.00;1.00;;;14.03;100.00;98058.59;5023245;28;119531;-69
2022/07/13 10:04:47;;;;;;;2.33;1.30;;;13.90;1.00;;;14.15;100.00;98070.44;5021985;28;130654;-70
2022/07/13 10:07:16;;;;;;;1.73;1.30;;;14.00;99.90;;;14.14;100.00;98077.03;5022062;28;129978;-70
2022/07/13 10:09:46;;;;;;;3.65;1.70;;;14.10;99.90;;;14.20;100.00;98072.84;5020876;28;122426;-73
2022/07/13 10:12:15;;;;;;;1.80;1.60;;;14.20;99.90;;;14.33;100.00;98071.44;5022249;28;122319;-71
2022/07/13 10:14:44;;;;;;;2.03;1.48;;;14.20;99.90;;;14.17;100.00;98087.22;5021013;28;129964;-70
2022/07/13 10:17:15;;;;;;;3.88;1.52;;;14.10;1.00;;;14.06;100.00;98083.56;5021869;28;129483;-73
2022/07/13 10:19:48;;;;;;;2.08;1.60;;;14.00;1.00;;;13.93;100.00;98089.25;5021696;28;119725;-72
2022/07/13 10:22:21;;;;;;;4.43;2.45;;;13.80;1.00;;;13.97;100.00;98095.50;5022649;28;119334;-71
2022/07/13 10:24:57;;;;;;;2.25;1.38;;;13.90;1.00;;;14.05;100.00;98095.63;5021608;28;129733;-72
2022/07/13 10:27:28;;;;;;;2.72;1.50;;;14.00;1.00;;;14.29;100.00;98095.19;5022453;28;130172;-71